sensor_id;sensor_type;location;lat;lon;timestamp;P1;durP1;ratioP1;P2;durP2;ratioP2
10381;SDS011;11635;53.636;10.120;2022-09-28T13:36:34;2.30;;;1.77;;
10381;SDS011;11635;53.636;10.120;2022-09-28T13:38:51;3.65;;;1.90;;
10381;SDS011;11635;53.636;10.120;2022-09-28T13:41:21;1.90;;;1.50;;
10381;SDS011;11635;53.636;10.120;2022-09-28T13:46:38;3.35;;;2.03;;
10381;SDS011;11635;53.636;10.120;2022-09-28T13:49:08;3.70;;;2.70;;
10381;SDS011;11635;53.636;10.120;2022-09-28T13:51:42;4.28;;;2.92;;
10381;SDS011;11635;53.636;10.120;2022-09-28T13:54:19;2.65;;;2.22;;
10381;SDS011;11635;53.636;10.120;2022-09-28T13:56:51;4.32;;;2.38;;
10381;SDS011;11635;53.636;10.120;2022-09-28T13:59:20;1.63;;;1.20;;
10381;SDS011;11635;53.636;10.120;2022-09-28T14:01:50;1.30;;;1.10;;
10381;SDS011;11635;53.636;10.120;2022-09-28T14:04:20;2.28;;;1.30;;
10381;SDS011;11635;53.636;10.120;2022-09-28T14:06:49;1.30;;;1.20;;
10381;SDS011;11635;53.636;10.120;2022-09-28T14:09:23;1.80;;;1.42;;
10381;SDS011;11635;53.636;10.120;2022-09-28T14:11:53;2.00;;;1.27;;
10381;SDS011;11635;53.636;10.120;2022-09-28T14:14:27;3.60;;;1.48;;
10381;SDS011;11635;53.636;10.120;2022-09-28T14:16:58;4.20;;;1.40;;
10381;SDS011;11635;53.636;10.120;2022-09-28T14:19:44;2.30;;;1.23;;
10381;SDS011;11635;53.636;10.120;2022-09-28T14:22:15;3.15;;;1.30;;
10381;SDS011;11635;53.636;10.120;2022-09-28T14:24:50;2.47;;;1.45;;
10381;SDS011;11635;53.636;10.120;2022-09-28T14:30:06;2.40;;;1.88;;
10381;SDS011;11635;53.636;10.120;2022-09-28T14:32:41;2.95;;;2.38;;
10381;SDS011;11635;53.636;10.120;2022-09-28T14:35:13;4.82;;;2.28;;
10381;SDS011;11635;53.636;10.120;2022-09-28T14:37:45;5.47;;;2.40;;
10381;SDS011;11635;53.636;10.120;2022-09-28T14:40:35;3.10;;;2.25;;
10381;SDS011;11635;53.636;10.120;2022-09-28T14:43:56;5.00;;;2.42;;
10381;SDS011;11635;53.636;10.120;2022-09-28T14:46:27;5.07;;;1.75;;
10381;SDS011;11635;53.636;10.120;2022-09-28T14:48:54;2.83;;;1.40;;
10381;SDS011;11635;53.636;10.120;2022-09-28T14:54:13;2.63;;;1.10;;
10381;SDS011;11635;53.636;10.120;2022-09-28T14:56:43;1.75;;;1.02;;
10381;SDS011;11635;53.636;10.120;2022-09-28T14:59:11;3.08;;;1.17;;
10381;SDS011;11635;53.636;10.120;2022-09-28T15:01:38;1.40;;;0.98;;
10381;SDS011;11635;53.636;10.120;2022-09-28T15:04:05;1.63;;;1.08;;
10381;SDS011;11635;53.636;10.120;2022-09-28T15:06:42;2.58;;;1.10;;
10381;SDS011;11635;53.636;10.120;2022-09-28T15:11:51;2.88;;;1.10;;
10381;SDS011;11635;53.636;10.120;2022-09-28T15:14:21;1.65;;;1.13;;
10381;SDS011;11635;53.636;10.120;2022-09-28T15:16:48;1.95;;;1.30;;
10381;SDS011;11635;53.636;10.120;2022-09-28T15:19:20;3.55;;;1.65;;
10381;SDS011;11635;53.636;10.120;2022-09-28T15:21:48;2.10;;;1.63;;
10381;SDS011;11635;53.636;10.120;2022-09-28T15:24:28;2.55;;;1.65;;
10381;SDS011;11635;53.636;10.120;2022-09-28T15:26:57;1.90;;;1.60;;
10381;SDS011;11635;53.636;10.120;2022-09-28T15:29:24;2.30;;;1.60;;
10381;SDS011;11635;53.636;10.120;2022-09-28T15:31:55;2.67;;;1.38;;
10381;SDS011;11635;53.636;10.120;2022-09-28T15:34:28;1.85;;;1.63;;
10381;SDS011;11635;53.636;10.120;2022-09-28T15:37:12;2.63;;;1.55;;
10381;SDS011;11635;53.636;10.120;2022-09-28T15:39:40;3.72;;;1.73;;
10381;SDS011;11635;53.636;10.120;2022-09-28T15:42:08;2.65;;;1.65;;
10381;SDS011;11635;53.636;10.120;2022-09-28T15:44:34;3.17;;;1.90;;
10381;SDS011;11635;53.636;10.120;2022-09-28T15:47:05;2.50;;;1.83;;
10381;SDS011;11635;53.636;10.120;2022-09-28T15:49:34;2.58;;;1.83;;
10381;SDS011;11635;53.636;10.120;2022-09-28T15:52:01;2.40;;;1.88;;
10381;SDS011;11635;53.636;10.120;2022-09-28T15:54:28;3.58;;;2.22;;
10381;SDS011;11635;53.636;10.120;2022-09-28T15:56:59;3.38;;;1.80;;
10381;SDS011;11635;53.636;10.120;2022-09-28T15:59:29;1.98;;;1.77;;
10381;SDS011;11635;53.636;10.120;2022-09-28T16:02:09;3.72;;;2.08;;
10381;SDS011;11635;53.636;10.120;2022-09-28T16:04:37;3.25;;;1.88;;
10381;SDS011;11635;53.636;10.120;2022-09-28T16:07:04;4.00;;;2.25;;
10381;SDS011;11635;53.636;10.120;2022-09-28T16:09:52;2.00;;;1.80;;
10381;SDS011;11635;53.636;10.120;2022-09-28T16:12:18;3.20;;;2.22;;
10381;SDS011;11635;53.636;10.120;2022-09-28T16:14:47;4.00;;;2.10;;
10381;SDS011;11635;53.636;10.120;2022-09-28T16:17:14;3.67;;;2.47;;
10381;SDS011;11635;53.636;10.120;2022-09-28T16:19:41;4.50;;;2.20;;
10381;SDS011;11635;53.636;10.120;2022-09-28T16:22:14;4.07;;;2.35;;
10381;SDS011;11635;53.636;10.120;2022-09-28T16:24:43;2.60;;;2.25;;
10381;SDS011;11635;53.636;10.120;2022-09-28T16:27:22;2.72;;;2.42;;
10381;SDS011;11635;53.636;10.120;2022-09-28T16:30:00;3.28;;;2.55;;
10381;SDS011;11635;53.636;10.120;2022-09-28T16:32:36;4.70;;;2.88;;
10381;SDS011;11635;53.636;10.120;2022-09-28T16:35:17;4.82;;;2.58;;
10381;SDS011;11635;53.636;10.120;2022-09-28T16:37:45;2.42;;;2.22;;
10381;SDS011;11635;53.636;10.120;2022-09-28T16:40:12;4.37;;;2.33;;
10381;SDS011;11635;53.636;10.120;2022-09-28T16:42:39;3.85;;;2.45;;
10381;SDS011;11635;53.636;10.120;2022-09-28T16:45:11;4.55;;;2.53;;
10381;SDS011;11635;53.636;10.120;2022-09-28T16:47:42;3.92;;;2.50;;
10381;SDS011;11635;53.636;10.120;2022-09-28T16:50:09;3.63;;;2.60;;
10381;SDS011;11635;53.636;10.120;2022-09-28T16:52:39;4.97;;;2.83;;
10381;SDS011;11635;53.636;10.120;2022-09-28T16:55:23;2.65;;;2.20;;
10381;SDS011;11635;53.636;10.120;2022-09-28T16:57:49;3.45;;;2.65;;
10381;SDS011;11635;53.636;10.120;2022-09-28T17:00:18;3.77;;;2.43;;
10381;SDS011;11635;53.636;10.120;2022-09-28T17:02:46;3.97;;;2.50;;
10381;SDS011;11635;53.636;10.120;2022-09-28T17:05:13;3.78;;;2.70;;
10381;SDS011;11635;53.636;10.120;2022-09-28T17:07:40;3.40;;;2.63;;
10381;SDS011;11635;53.636;10.120;2022-09-28T17:10:11;3.10;;;2.47;;
10381;SDS011;11635;53.636;10.120;2022-09-28T17:12:39;3.23;;;2.33;;
10381;SDS011;11635;53.636;10.120;2022-09-28T17:15:06;2.83;;;2.40;;
10381;SDS011;11635;53.636;10.120;2022-09-28T17:17:33;4.20;;;2.80;;
